Danville, Vermont
Current Conditions -  °F | °C
As of 10:35 PM on Monday 22 Dec 2014 (Local Time) from KCDA Reporting Station
Light Rain Light Rain  
Wind Chill: 31°   Ceiling: 2900
Heat Index: 31°   Visibility: 7mi
Dew Point: 26°   Wind: 0mph
Humidity: 81%   Direction: NA
Pressure: 30.29"   Gusts: NA
Location:  44.41°N, 72.14°W
Report Text: KCDA 230335Z AUTO 00000KT 7SM -RA SCT023 BKN029 OVC033 M01/M03 A3029 RMK AO2 T10061035
Loading
Personal Weather Stations






























Interactive Weather Map New forecast layout! Learn more

10-Day Weather Forecast

Advertisements
Track Severe Weather on mobile